Station: Clare

  Atmospheric Gas Attenuation - ITU Rec 676-11   --------------- db/100km ---------------
Date Time Temp RH % AH g/m3 Dew Point Wind Direction Speed kph Gust kph Barometer mB Rainfall Since 9am 24GHz 47GHz 76GHz 122GHz 134GHz 241GHz
27 12:10 13.3 58 6.7 5.2 13 13 1025.4 0 15.6 23.5 33.1 86.5 75.4 257.8
27 12:00 13.3 58 6.7 5.2 13 22 1025.3 0 15.6 23.5 33.1 86.5 75.4 257.8
27 11:50 12.8 56 6.27 4.3 17 22 1025.7 0 14.7 23.0 31.7 82.7 70.6 240.7
27 11:40 12.9 58 6.54 4.8 13 19 1025.8 0 15.2 23.4 32.7 85.3 73.9 252.2
27 11:30 12.6 60 6.64 5.1 11 19 1025.7 0 15.5 23.6 33.2 86.6 75.4 257.5
27 11:20 12.9 60 6.76 5.3 13 17 1026 0 15.7 23.7 33.5 87.6 76.6 261.9
27 11:10 11.9 58 6.14 3.9 11 15 1026.1 0 14.4 23.0 31.6 82.3 69.8 237.8
27 11:00 12.1 59 6.33 4.3 13 20 1026.2 0 14.8 23.3 32.2 84.1 72.0 245.6
27 10:50 11.8 60 6.32 4.3 13 17 1026.4 0 14.8 23.3 32.3 84.3 72.2 246.1
27 10:40 12 61 6.5 4.7 9 13 1026.5 0 15.2 23.6 32.9 85.9 74.2 253.4
27 10:30 11.6 63 6.55 4.8 13 24 1026.4 0 15.3 23.7 33.3 86.9 75.2 256.9
27 10:20 11.1 58 5.84 3.2 13 17 1026.6 0 13.8 22.8 30.8 80.2 66.8 227.1
27 10:10 11.2 61 6.18 4 15 19 1026.6 0 14.5 23.3 32.1 83.5 71.0 241.8
27 10:00 10.9 62 6.17 3.9 13 22 1026.6 0 14.5 23.3 32.1 83.7 71.1 242.2
27 09:50 10.4 59 5.69 2.7 13 17 1026.8 0 13.5 22.7 30.5 79.4 65.5 222.6
27 09:40 10.1 59 5.58 2.5 17 19 1027.2 0 13.3 22.7 30.2 78.6 64.4 218.7
27 09:30 10.2 64 6.09 3.7 13 20 1026.9 0 14.4 23.4 32.1 83.7 70.7 240.9
27 09:20 10.1 64 6.05 3.6 13 15 1027 0 14.3 23.4 32.0 83.4 70.3 239.4
27 09:10 9.9 64 5.98 3.4 11 15 1027 0 14.2 23.3 31.8 82.9 69.6 236.9
27 09:00 9.4 65 5.88 3.2 11 17 1026.9 0 14.0 23.3 31.6 82.3 68.8 233.9
27 08:50 9.2 64 5.72 2.8 11 13 1027.3 0 13.6 23.1 31.1 80.9 66.9 227.4
27 08:40 9.4 66 5.97 3.4 9 17 1027.3 0 14.2 23.4 32.0 83.3 69.9 238.0
27 08:30 9.1 68 6.04 3.5 11 15 1027.1 0 14.3 23.6 32.4 84.3 71.1 242.0
27 08:20 8.9 67 5.87 3.1 11 13 1027.2 0 14.0 23.4 31.8 82.8 69.1 235.0
27 08:10 8.4 74 6.28 4 7 9 1027 0 14.9 24.2 33.6 87.6 74.9 255.1
27 08:00 7.9 83 6.82 5.2 6 9 1026.8 0 16.0 25.2 36.0 94.0 82.5 282.0
27 07:50 6.8 99 7.58 6.7 0 0 1026.9 0 17.7 26.8 39.7 103.9 94.3 323.1
27 07:40 5.3 100 6.94 5.3 0 0 1026.9 0 16.4 26.1 37.7 98.6 87.1 297.4
27 07:30 4.4 100 6.53 4.4 0 0 1026.7 0 15.6 25.7 36.4 95.0 82.3 280.6
27 07:20 3.7 3.8 0 0 1026.8 0
27 07:10 3.2 3.3 0 0 1026.7 0
27 07:00 2.3 100 5.68 2.3 0 0 1026.5 0 13.8 24.8 33.7 87.8 72.5 246.0
27 06:50 1.1 1.2 0 0 1026.5 0
27 06:40 0.4 100 4.99 0.4 0 0 1026.4 0 12.4 24.2 31.6 82.1 64.6 218.1
27 06:30 0.1 100 4.89 0.1 0 0 1026.1 0 12.2 24.1 31.3 81.3 63.5 214.0
27 06:20 -0.4 100 4.72 -0.4 0 0 1026 0 11.8 23.9 30.7 79.9 61.5 207.1
27 06:10 -0.6 100 4.65 -0.6 0 0 1025.8 0 11.7 23.9 30.5 79.3 60.7 204.2
27 06:00 -0.5 100 4.69 -0.5 0 0 1025.4 0 11.8 23.9 30.6 79.6 61.2 205.8
27 05:50 -0.6 100 4.65 -0.6 0 0 1025.6 0 11.7 23.9 30.5 79.3 60.7 204.1
27 05:40 -0.5 100 4.69 -0.5 0 0 1025.5 0 11.8 23.9 30.6 79.6 61.2 205.8
27 05:30 -0.6 100 4.65 -0.6 0 0 1025.1 0 11.7 23.8 30.5 79.3 60.7 204.0
27 05:10 -0.5 100 4.69 -0.5 0 0 1024.8 0 11.8 23.9 30.6 79.6 61.1 205.7
27 04:40 -0.3 100 4.75 -0.3 0 0 1024.6 0 11.9 23.9 30.8 80.0 61.8 208.0
27 04:30 -0.4 100 4.72 -0.4 0 0 1024.5 0 11.8 23.9 30.7 79.8 61.5 206.8
27 04:20 -0.3 100 4.75 -0.3 0 0 1024.5 0 11.9 23.9 30.8 80.0 61.8 208.0
27 04:10 -0.5 100 4.69 -0.5 0 0 1024.4 0 11.8 23.9 30.6 79.5 61.1 205.6
27 04:00 -0.6 100 4.65 -0.6 0 0 1024.2 0 11.7 23.8 30.5 79.2 60.6 203.9
27 03:50 -0.4 100 4.72 -0.4 0 0 1024.2 0 11.8 23.9 30.7 79.8 61.4 206.7
27 03:40 -0.2 100 4.79 -0.2 0 0 1024.2 0 12.0 23.9 30.9 80.3 62.2 209.6
27 03:30 0 100 4.85 0 0 0 1024 0 12.1 24.0 31.1 80.8 62.9 211.9
27 03:20 0.2 100 4.92 0.2 0 0 1024.2 0 12.2 24.0 31.3 81.4 63.7 214.8
27 03:10 0.1 100 4.89 0.1 0 0 1024.2 0 12.2 24.0 31.2 81.1 63.4 213.6
27 03:00 0.1 100 4.89 0.1 0 0 1024 0 12.2 24.0 31.2 81.1 63.4 213.6
27 02:50 0.2 100 4.92 0.2 0 0 1024 0 12.2 24.0 31.3 81.4 63.7 214.8
27 02:40 0.4 100 4.99 0.4 0 0 1024 0 12.4 24.1 31.5 81.9 64.5 217.6
27 02:30 0.5 100 5.02 0.5 0 0 1023.9 0 12.4 24.1 31.6 82.1 64.8 218.8
27 02:20 0.5 100 5.02 0.5 0 0 1024 0 12.4 24.1 31.6 82.2 64.8 218.8
27 02:10 0.4 100 4.99 0.4 0 0 1024 0 12.4 24.1 31.5 81.9 64.5 217.6
27 02:00 0.3 100 4.95 0.3 0 0 1024 0 12.3 24.1 31.4 81.6 64.0 216.0
27 01:50 0.4 100 4.99 0.4 0 0 1024.1 0 12.4 24.1 31.5 81.9 64.5 217.6
27 01:40 0.6 100 5.06 0.6 0 0 1024.1 0 12.5 24.2 31.7 82.5 65.3 220.5
27 01:30 0.8 100 5.13 0.8 0 0 1024 0 12.7 24.2 31.9 83.1 66.1 223.3
27 01:20 0.6 100 5.06 0.6 0 0 1024.2 0 12.5 24.2 31.7 82.5 65.3 220.5
27 01:10 0.7 100 5.09 0.7 0 0 1024.2 0 12.6 24.2 31.8 82.7 65.6 221.7
27 01:00 0.9 100 5.16 0.9 0 0 1024.1 0 12.7 24.3 32.0 83.3 66.4 224.5
27 00:50 1.1 100 5.23 1.1 0 0 1024.3 0 12.9 24.3 32.2 83.9 67.2 227.3
27 00:40 1 99 5.14 0.9 0 0 1024.3 0 12.7 24.2 31.9 83.0 66.1 223.3
27 00:30 1.1 100 5.23 1.1 0 0 1024.2 0 12.9 24.3 32.2 83.9 67.2 227.3
27 00:20 1.4 100 5.34 1.4 0 0 1024.4 0 13.1 24.4 32.6 84.8 68.5 231.8
27 00:10 1.5 99 5.32 1.4 0 0 1024.4 0 13.1 24.4 32.4 84.5 68.1 230.5
27 00:00 1.4 99 5.29 1.3 0 0 1024.3 0 13.0 24.3 32.3 84.2 67.8 229.4
26 23:50 1.5 99 5.32 1.4 0 0 1024.5 0 13.1 24.4 32.4 84.5 68.1 230.6
26 23:40 1.8 99 5.43 1.7 0 0 1024.5 0 13.3 24.5 32.8 85.4 69.4 235.0
26 23:30 1.9 99 5.47 1.8 0 0 1024.4 0 13.4 24.5 32.9 85.7 69.9 236.6
26 23:20 2.2 99 5.58 2.1 0 0 1024.4 0 13.6 24.6 33.2 86.6 71.1 241.0
26 23:10 2.3 99 5.62 2.2 0 0 1024.4 0 13.7 24.7 33.4 87.0 71.6 242.7
26 23:00 2.5 99 5.7 2.4 0 0 1024.3 0 13.8 24.7 33.6 87.6 72.5 245.9
26 22:50 2.5 99 5.7 2.4 0 0 1024.4 0 13.8 24.7 33.6 87.6 72.5 245.9
26 22:40 2.4 99 5.66 2.3 0 0 1024.4 0 13.8 24.7 33.5 87.3 72.0 244.3
26 22:30 2.7 99 5.77 2.6 0 0 1024.3 0 14.0 24.8 33.8 88.2 73.3 248.7
26 22:20 3 98 5.83 2.7 0 0 1024.5 0 14.1 24.8 33.9 88.5 73.8 250.7
26 22:10 3.5 99 6.09 3.4 0 0 1024.5 0 14.6 25.1 34.8 90.9 76.9 261.7
26 22:00 3.6 98 6.07 3.3 0 0 1024.4 0 14.6 25.1 34.7 90.5 76.5 260.4
26 21:50 3.7 96 5.99 3.1 0 0 1024.4 0 14.4 24.9 34.3 89.5 75.3 256.1
26 21:40 3.8 93 5.84 2.8 0 0 1024.4 0 14.1 24.6 33.6 87.7 73.2 248.6
26 21:30 4.1 89 5.7 2.5 2 6 1024.3 0 13.8 24.3 32.9 85.8 71.0 240.9
26 21:20 4.7 88 5.87 2.9 6 7 1024.3 0 14.1 24.4 33.4 87.0 72.7 247.2
26 21:10 5.7 84 5.98 3.2 7 9 1024.2 0 14.3 24.3 33.4 87.1 73.3 249.2
26 21:00 5.7 84 5.98 3.2 7 11 1024.1 0 14.3 24.3 33.4 87.1 73.3 249.2
26 20:50 5.5 85 5.97 3.2 7 9 1024.2 0 14.3 24.4 33.5 87.2 73.3 249.3
26 20:40 5.3 84 5.83 2.8 6 6 1024.2 0 14.0 24.2 33.0 85.9 71.6 243.4
26 20:30 5.7 82 5.84 2.9 6 9 1024 0 14.0 24.1 32.8 85.6 71.4 242.6
26 20:20 6.2 79 5.81 2.8 6 7 1024.2 0 13.9 23.9 32.5 84.7 70.5 239.7
26 20:10 7 75 5.81 2.9 9 11 1024.1 0 13.9 23.7 32.2 83.9 69.8 237.2
26 20:00 7.2 74 5.81 2.9 9 13 1023.9 0 13.9 23.6 32.1 83.6 69.6 236.6
26 19:50 7.3 74 5.85 3 9 13 1023.9 0 14.0 23.7 32.2 84.0 70.1 238.1
26 19:40 7.3 74 5.85 3 9 11 1023.8 0 14.0 23.7 32.2 84.0 70.1 238.1
26 19:30 7.5 74 5.93 3.2 9 13 1023.5 0 14.1 23.7 32.4 84.6 70.9 241.1
26 19:20 7.8 73 5.96 3.3 11 13 1023.6 0 14.2 23.7 32.4 84.6 71.0 241.6
26 19:10 8 73 6.04 3.5 7 9 1023.5 0 14.4 23.8 32.7 85.2 71.9 244.6

Last Refresh: 27-Sep-2020 12:25:07

Most of the information presented on this site is sourced from the Bureau of Meteorology.  Copyright in all material sourced from the Bureau of Meteorology resides with the Commonwealth of Australia.